Time;durP1;ratioP1;P1;durP2;ratioP2;P2;SDS_P1;SDS_P2;PMS_P1;PMS_P2;Temp;Humidity;BMP_temperature;BMP_pressure;BME280_temperature;BME280_humidity;BME280_pressure;Samples;Min_cycle;Max_cycle;Signal;HPM_P1;HPM_P2
2024/03/09 00:00:19;;;;;;;30.55;10.82;;;;;;;0.87;45.42;101078.72;5023077;28;20056;-76
2024/03/09 00:02:46;;;;;;;21.13;9.18;;;;;;;0.91;45.37;101075.31;5026211;28;20090;-76
2024/03/09 00:05:12;;;;;;;19.95;8.55;;;;;;;0.86;45.33;101072.72;5022807;28;20119;-77
2024/03/09 00:07:37;;;;;;;23.95;11.02;;;;;;;0.86;45.27;101074.44;5029889;28;20100;-76
2024/03/09 00:10:07;;;;;;;20.98;9.25;;;;;;;0.81;45.59;101079.53;5025426;28;20125;-76
2024/03/09 00:12:34;;;;;;;23.73;10.07;;;;;;;0.77;45.60;101072.69;5019127;28;20044;-75
2024/03/09 00:15:01;;;;;;;20.30;8.77;;;;;;;0.74;45.75;101071.81;5024478;28;20021;-74
2024/03/09 00:17:28;;;;;;;19.05;9.05;;;;;;;0.84;45.60;101071.84;5021681;28;20433;-74
2024/03/09 00:19:53;;;;;;;21.73;9.75;;;;;;;0.66;45.92;101070.06;5021965;28;20044;-75
2024/03/09 00:22:20;;;;;;;23.92;9.40;;;;;;;0.66;45.91;101070.06;5020422;28;20049;-75
2024/03/09 00:24:47;;;;;;;22.33;8.27;;;;;;;0.56;45.99;101060.56;5026211;28;20118;-76
2024/03/09 00:27:18;;;;;;;21.27;10.27;;;;;;;0.59;46.06;101065.75;5019123;28;20316;-74
2024/03/09 00:29:43;;;;;;;22.00;9.20;;;;;;;0.55;46.24;101056.31;5029020;28;20040;-74
2024/03/09 00:32:09;;;;;;;25.52;9.73;;;;;;;0.65;46.25;101055.47;5024719;28;20048;-74
2024/03/09 00:34:35;;;;;;;25.05;9.93;;;;;;;0.72;45.78;101048.63;5017569;28;20040;-72
2024/03/09 00:37:00;;;;;;;23.15;9.15;;;;;;;0.76;45.86;101052.09;5022639;28;20097;-72
2024/03/09 00:39:25;;;;;;;22.25;10.45;;;;;;;0.56;46.55;101047.72;5000716;28;20032;-71
2024/03/09 00:41:51;;;;;;;22.48;10.07;;;;;;;0.60;46.21;101046.88;5024439;28;20148;-72
2024/03/09 00:44:16;;;;;;;28.38;9.52;;;;;;;0.65;46.12;101041.75;5018936;28;20075;-72
2024/03/09 00:46:42;;;;;;;19.15;9.18;;;;;;;0.70;46.31;101045.19;5024435;28;20142;-75
2024/03/09 00:49:09;;;;;;;21.77;9.00;;;;;;;0.66;46.11;101031.47;5008618;28;20493;-76
2024/03/09 00:51:35;;;;;;;21.25;8.65;;;;;;;0.54;46.37;101033.13;5009812;28;20125;-75
2024/03/09 00:54:03;;;;;;;22.45;9.70;;;;;;;0.48;46.52;101029.69;5031226;28;20025;-73
2024/03/09 00:56:29;;;;;;;23.92;9.07;;;;;;;0.54;46.75;101030.56;5004485;28;20045;-71
2024/03/09 00:58:56;;;;;;;24.48;10.60;;;;;;;0.60;46.42;101020.31;4998528;28;20068;-71
2024/03/09 01:01:23;;;;;;;21.25;10.15;;;;;;;0.60;46.56;101013.44;5013419;28;20044;-71
2024/03/09 01:03:51;;;;;;;20.50;9.27;;;;;;;0.39;46.85;101024.53;5025502;28;20095;-75
2024/03/09 01:06:20;;;;;;;23.52;9.80;;;;;;;0.35;47.23;101027.06;5019877;28;20044;-72
2024/03/09 01:08:49;;;;;;;23.38;9.75;;;;;;;0.43;47.10;101021.06;5024197;28;20061;-71
2024/03/09 01:11:17;;;;;;;22.15;11.13;;;;;;;0.38;47.08;101012.50;5021975;28;20044;-71
2024/03/09 01:13:44;;;;;;;22.92;10.45;;;;;;;0.42;46.98;101013.38;5025431;28;20155;-72
2024/03/09 01:16:10;;;;;;;27.70;10.10;;;;;;;0.34;47.47;101012.47;5011035;28;20566;-71
2024/03/09 01:18:36;;;;;;;19.55;9.15;;;;;;;0.22;47.16;101013.28;5010605;28;20147;-74
2024/03/09 01:21:01;;;;;;;24.05;9.40;;;;;;;0.52;46.85;101003.97;5037301;28;20041;-72
2024/03/09 01:23:30;;;;;;;21.17;10.38;;;;;;;0.32;47.18;101001.31;5021912;28;20036;-74
2024/03/09 01:25:57;;;;;;;24.58;9.82;;;;;;;0.22;47.24;100995.28;5023553;28;20037;-71
2024/03/09 01:28:22;;;;;;;20.60;10.32;;;;;;;0.40;47.07;100995.38;5026709;28;20044;-70
2024/03/09 01:30:47;;;;;;;29.38;10.77;;;;;;;0.39;47.25;100995.34;5025428;28;20109;-73
2024/03/09 01:33:14;;;;;;;25.48;11.00;;;;;;;0.29;46.95;100997.03;5023314;28;20040;-75
2024/03/09 01:35:39;;;;;;;21.33;10.25;;;;;;;0.42;46.90;101000.53;5021228;28;20375;-72
2024/03/09 01:38:04;;;;;;;22.73;9.88;;;;;;;0.46;46.86;100999.69;5023154;28;20600;-71
2024/03/09 01:40:31;;;;;;;22.15;9.45;;;;;;;0.47;46.70;100985.97;5022052;28;20112;-73
2024/03/09 01:42:57;;;;;;;22.67;10.88;;;;;;;0.46;46.78;100986.81;5026251;28;20592;-74
2024/03/09 01:45:23;;;;;;;18.83;9.07;;;;;;;0.40;46.94;100979.09;5013527;28;20056;-74
2024/03/09 01:47:51;;;;;;;20.00;9.68;;;;;;;0.22;47.41;100980.72;5014369;28;20068;-74
2024/03/09 01:50:19;;;;;;;21.27;10.35;;;;;;;0.33;47.21;100982.50;5019070;28;20041;-77
2024/03/09 01:52:49;;;;;;;24.70;10.23;;;;;;;0.21;47.32;100976.44;5023827;28;20055;-76
2024/03/09 01:55:15;;;;;;;24.10;10.30;;;;;;;0.30;47.44;100974.75;5019471;28;20091;-75
2024/03/09 01:57:42;;;;;;;25.85;10.43;;;;;;;0.22;47.82;100974.72;5014397;28;20040;-75
2024/03/09 02:00:09;;;;;;;26.23;10.73;;;;;;;0.27;47.50;100961.03;5027102;28;20057;-75
2024/03/09 02:02:34;;;;;;;21.83;9.32;;;;;;;0.16;48.18;100970.41;4988332;28;20051;-74
2024/03/09 02:05:10;;;;;;;23.30;10.50;;;;;;;0.13;48.04;100954.97;5017290;28;20930;-75
2024/03/09 02:07:36;;;;;;;27.35;10.95;;;;;;;0.18;48.17;100955.00;5011251;28;20041;-76
2024/03/09 02:10:03;;;;;;;23.80;10.02;;;;;;;0.25;47.45;100959.31;5027816;28;20032;-76
2024/03/09 02:12:29;;;;;;;20.05;10.40;;;;;;;0.03;48.30;100958.34;5024117;28;20044;-78
2024/03/09 02:14:54;;;;;;;22.27;10.02;;;;;;;0.07;47.89;100949.78;5018288;28;20024;-74
2024/03/09 02:17:22;;;;;;;23.17;10.52;;;;;;;0.39;47.18;100952.50;5024759;28;20044;-72
2024/03/09 02:19:48;;;;;;;26.45;10.55;;;;;;;0.39;47.14;100952.50;5024298;28;20058;-73
2024/03/09 02:22:17;;;;;;;18.83;9.60;;;;;;;0.27;47.39;100940.44;5021815;28;20044;-72
2024/03/09 02:24:58;;;;;;;28.77;11.25;;;;;;;0.15;47.79;100937.84;5019268;28;20459;-72
2024/03/09 02:27:26;;;;;;;20.10;9.82;;;;;;;0.15;47.60;100934.44;5019078;28;20036;-73
2024/03/09 02:29:52;;;;;;;22.83;9.50;;;;;;;0.05;48.26;100926.69;5025020;28;20044;-72
2024/03/09 02:32:18;;;;;;;21.65;10.30;;;;;;;-0.09;48.39;100918.03;5022604;28;20169;-72
2024/03/09 02:34:44;;;;;;;23.02;10.68;;;;;;;-0.06;48.13;100917.19;5023880;28;20031;-73
2024/03/09 02:37:09;;;;;;;24.08;11.43;;;;;;;-0.02;48.17;100916.34;5022643;28;20037;-73
2024/03/09 02:39:36;;;;;;;27.52;11.68;;;;;;;-0.09;48.27;100909.47;5019421;28;20032;-73
2024/03/09 02:42:04;;;;;;;21.95;9.95;;;;;;;-0.07;48.54;100915.47;5023148;28;20043;-74
2024/03/09 02:44:31;;;;;;;27.63;10.98;;;;;;;-0.23;48.54;100905.13;5023566;28;20029;-74
2024/03/09 02:46:56;;;;;;;21.95;10.27;;;;;;;-0.15;48.21;100898.31;5024809;28;20045;-73
2024/03/09 02:49:24;;;;;;;33.30;12.07;;;;;;;-0.11;48.20;100898.31;5021497;28;20519;-73
2024/03/09 02:51:50;;;;;;;21.02;10.63;;;;;;;-0.21;48.59;100893.16;5025328;28;20083;-74
2024/03/09 02:54:16;;;;;;;24.20;10.02;;;;;;;-0.21;48.50;100879.44;5006602;28;20116;-73
2024/03/09 02:56:42;;;;;;;28.15;11.45;;;;;;;-0.15;48.34;100882.91;5009732;28;20156;-73
2024/03/09 02:59:08;;;;;;;24.45;11.60;;;;;;;-0.23;48.27;100879.44;4997691;28;20045;-75
2024/03/09 03:01:34;;;;;;;28.23;10.98;;;;;;;-0.18;48.63;100870.03;5009130;28;20095;-76
2024/03/09 03:04:01;;;;;;;22.13;10.68;;;;;;;-0.22;48.37;100865.72;5000668;28;20620;-77
2024/03/09 03:06:32;;;;;;;23.45;9.75;;;;;;;-0.37;48.61;100863.97;5028153;28;20045;-77
2024/03/09 03:09:03;;;;;;;23.58;10.27;;;;;;;-0.30;48.74;100862.28;5030228;28;20277;-77
2024/03/09 03:11:28;;;;;;;24.20;9.93;;;;;;;-0.39;48.85;100865.66;5014499;28;20040;-76
2024/03/09 03:13:54;;;;;;;27.90;11.75;;;;;;;-0.51;49.20;100860.44;4994817;28;20040;-77
2024/03/09 03:16:31;;;;;;;25.60;10.85;;;;;;;-0.49;49.21;100863.03;5018243;28;20045;-74
2024/03/09 03:18:59;;;;;;;31.40;11.77;;;;;;;-0.47;49.40;100858.75;5023509;28;20978;-71
2024/03/09 03:21:25;;;;;;;23.67;10.30;;;;;;;-0.46;49.28;100851.06;5000841;28;20040;-72
2024/03/09 03:23:52;;;;;;;29.33;11.38;;;;;;;-0.47;49.29;100854.47;5005044;28;20040;-75
2024/03/09 03:26:19;;;;;;;27.10;11.77;;;;;;;-0.52;49.88;100857.88;5022062;28;20675;-78
2024/03/09 03:28:47;;;;;;;17.23;9.63;;;;;;;-0.42;49.27;100857.06;5005769;28;20447;-76
2024/03/09 03:31:16;;;;;;;26.58;11.45;;;;;;;-0.47;49.18;100848.50;5005521;28;20040;-76
2024/03/09 03:33:42;;;;;;;27.45;11.15;;;;;;;-0.51;49.50;100857.03;5011377;28;20116;-76
2024/03/09 03:36:18;;;;;;;25.05;12.20;;;;;;;-0.36;48.99;100854.53;5024260;28;20044;-76
2024/03/09 03:38:47;;;;;;;22.38;11.88;;;;;;;-0.68;50.18;100852.66;5020151;28;20040;-76
2024/03/09 03:41:14;;;;;;;24.85;11.73;;;;;;;-0.42;49.28;100851.94;5022816;28;20117;-76
2024/03/09 03:43:42;;;;;;;26.60;11.35;;;;;;;-0.44;49.40;100849.34;5028962;28;20501;-75
2024/03/09 03:46:11;;;;;;;29.30;10.43;;;;;;;-0.45;49.23;100857.91;5021800;28;20044;-75
2024/03/09 03:48:40;;;;;;;24.50;11.77;;;;;;;-0.61;49.89;100862.09;5026058;28;20171;-75
2024/03/09 03:51:07;;;;;;;30.55;12.27;;;;;;;-0.45;49.23;100857.91;5000406;28;20069;-75
2024/03/09 03:53:33;;;;;;;26.33;12.95;;;;;;;-0.56;49.96;100854.44;5003425;28;20043;-74
2024/03/09 03:55:59;;;;;;;28.23;11.48;;;;;;;-0.53;49.80;100849.31;5022373;28;20064;-67
2024/03/09 03:58:25;;;;;;;23.25;10.30;;;;;;;-0.61;49.72;100845.84;5026695;28;21284;-72
2024/03/09 04:00:52;;;;;;;24.13;11.25;;;;;;;-0.69;49.93;100853.50;5017450;28;20092;-71
2024/03/09 04:03:22;;;;;;;24.05;10.88;;;;;;;-0.59;49.90;100854.44;5007233;28;20044;-73
2024/03/09 04:05:48;;;;;;;24.83;10.80;;;;;;;-0.62;49.89;100839.84;4991870;28;20048;-72
2024/03/09 04:08:16;;;;;;;24.75;11.15;;;;;;;-0.81;50.39;100848.28;5026696;28;20033;-72
2024/03/09 04:10:43;;;;;;;32.70;10.05;;;;;;;-0.63;49.86;100843.28;5015291;28;20427;-72
2024/03/09 04:13:13;;;;;;;21.77;10.27;;;;;;;-0.59;49.70;100845.00;5007685;28;20029;-72
2024/03/09 04:15:40;;;;;;;23.67;10.60;;;;;;;-0.77;50.48;100847.47;5010749;28;20563;-72
2024/03/09 04:18:06;;;;;;;30.25;11.80;;;;;;;-0.68;50.19;100844.97;5024031;28;20429;-73
2024/03/09 04:20:34;;;;;;;27.42;11.60;;;;;;;-0.86;50.46;100838.00;5016339;28;20498;-73
2024/03/09 04:23:07;;;;;;;22.35;10.75;;;;;;;-0.73;50.20;100835.50;5025244;28;20052;-74
2024/03/09 04:25:35;;;;;;;29.67;11.90;;;;;;;-0.79;50.63;100826.06;5005371;28;20029;-71
2024/03/09 04:28:04;;;;;;;30.98;11.73;;;;;;;-0.71;50.44;100818.41;5021805;28;20035;-71
2024/03/09 04:30:33;;;;;;;25.52;11.70;;;;;;;-0.77;50.30;100827.78;5014447;28;20445;-68
2024/03/09 04:33:04;;;;;;;26.20;12.13;;;;;;;-0.79;50.66;100826.06;5006432;28;20128;-68
2024/03/09 04:35:31;;;;;;;29.60;12.48;;;;;;;-0.83;50.54;100820.03;5006769;28;20453;-72
2024/03/09 04:37:57;;;;;;;35.15;12.45;;;;;;;-1.06;51.22;100817.34;5005021;28;20037;-70
2024/03/09 04:40:24;;;;;;;29.73;11.93;;;;;;;-0.97;51.07;100814.84;5002212;28;20083;-70
2024/03/09 04:42:50;;;;;;;27.83;11.50;;;;;;;-0.85;50.43;100810.63;5019277;28;20036;-71
2024/03/09 04:45:22;;;;;;;27.73;12.77;;;;;;;-1.04;51.14;100814.75;5023865;28;20545;-70
2024/03/09 04:47:48;;;;;;;27.25;12.38;;;;;;;-1.21;51.68;100799.22;5023526;28;20724;-71
2024/03/09 04:50:17;;;;;;;22.50;11.85;;;;;;;-1.18;51.47;100801.81;5022330;28;20106;-71
2024/03/09 04:52:47;;;;;;;27.50;11.85;;;;;;;-1.01;51.26;100800.25;5019970;28;20112;-71
2024/03/09 04:55:18;;;;;;;28.85;11.75;;;;;;;-0.92;51.02;100790.91;4997978;28;20032;-71
2024/03/09 04:57:44;;;;;;;29.50;12.02;;;;;;;-1.03;51.07;100804.50;5005093;28;20046;-71
2024/03/09 05:00:15;;;;;;;29.73;12.57;;;;;;;-1.04;51.24;100800.25;5010950;28;20036;-69
2024/03/09 05:02:48;;;;;;;29.15;12.02;;;;;;;-1.03;51.10;100794.25;5033163;28;20056;-69
2024/03/09 05:05:18;;;;;;;28.88;12.23;;;;;;;-1.19;51.70;100785.56;5036330;28;20032;-70
2024/03/09 05:07:46;;;;;;;27.48;11.27;;;;;;;-1.32;52.01;100782.91;5034543;28;20059;-71
2024/03/09 05:10:16;;;;;;;30.58;12.50;;;;;;;-1.19;52.01;100779.59;5040243;28;20099;-70
2024/03/09 05:12:41;;;;;;;29.02;12.50;;;;;;;-1.18;51.53;100778.72;5033329;28;20178;-71
2024/03/09 05:15:08;;;;;;;29.77;12.10;;;;;;;-1.10;51.77;100774.50;5022931;28;20032;-71
2024/03/09 05:17:33;;;;;;;29.00;13.00;;;;;;;-1.10;51.62;100769.38;5027709;28;20125;-71
2024/03/09 05:20:10;;;;;;;37.35;14.15;;;;;;;-1.22;51.89;100767.59;5013107;28;20104;-70
2024/03/09 05:22:36;;;;;;;22.95;11.73;;;;;;;-1.21;51.85;100768.47;5023031;28;20090;-71
2024/03/09 05:25:01;;;;;;;32.13;14.05;;;;;;;-1.31;52.46;100758.97;5027321;28;20124;-70
2024/03/09 05:27:27;;;;;;;23.83;11.57;;;;;;;-1.27;51.96;100758.16;5027042;28;20302;-68
2024/03/09 05:29:53;;;;;;;27.23;12.13;;;;;;;-1.09;51.80;100760.81;5029424;28;20040;-76
2024/03/09 05:32:22;;;;;;;28.33;12.00;;;;;;;-1.17;51.77;100758.22;5034382;28;20239;-76
2024/03/09 05:34:47;;;;;;;33.33;12.57;;;;;;;-1.41;52.46;100758.91;5028407;28;20025;-73
2024/03/09 05:37:13;;;;;;;29.60;13.00;;;;;;;-1.34;52.52;100758.94;5022889;28;20060;-69
2024/03/09 05:39:38;;;;;;;23.85;11.52;;;;;;;-1.27;52.57;100765.84;5032366;28;20095;-74
2024/03/09 05:42:04;;;;;;;28.05;12.95;;;;;;;-1.32;52.70;100772.66;5023196;28;20032;-72
2024/03/09 05:44:32;;;;;;;29.50;13.20;;;;;;;-1.15;51.84;100772.75;5025939;28;20063;-72
2024/03/09 05:47:01;;;;;;;31.92;13.02;;;;;;;-1.21;51.79;100782.13;5021551;28;20042;-75
2024/03/09 05:49:27;;;;;;;23.10;12.07;;;;;;;-1.07;51.53;100774.53;5031033;28;20885;-74
2024/03/09 05:51:54;;;;;;;25.58;12.15;;;;;;;-1.09;51.59;100775.38;5025343;28;20478;-70
2024/03/09 05:54:20;;;;;;;35.70;14.00;;;;;;;-1.11;51.90;100777.91;5007516;28;20032;-74
2024/03/09 05:56:46;;;;;;;30.42;12.93;;;;;;;-1.21;52.12;100783.84;5024391;28;20076;-74
2024/03/09 05:59:11;;;;;;;34.15;15.05;;;;;;;-1.19;52.03;100783.00;5025446;28;20044;-75
2024/03/09 06:01:37;;;;;;;25.27;12.23;;;;;;;-1.29;52.35;100780.34;5022734;28;20090;-75
2024/03/09 06:04:03;;;;;;;36.15;12.90;;;;;;;-1.50;53.12;100771.66;5019460;28;20111;-74
2024/03/09 06:06:29;;;;;;;30.15;11.77;;;;;;;-1.35;52.51;100764.91;5028184;28;20163;-74
2024/03/09 06:08:55;;;;;;;27.55;12.43;;;;;;;-1.30;52.32;100765.81;5001955;28;20209;-74
2024/03/09 06:11:21;;;;;;;34.38;13.13;;;;;;;-1.36;52.80;100765.78;4990696;28;20468;-69
2024/03/09 06:13:48;;;;;;;29.73;12.52;;;;;;;-1.55;53.10;100765.63;5014814;28;20086;-75
2024/03/09 06:16:17;;;;;;;25.30;12.00;;;;;;;-1.32;52.60;100762.38;5025810;28;20094;-75
2024/03/09 06:18:48;;;;;;;30.58;12.88;;;;;;;-1.28;52.86;100764.13;5025488;28;20086;-74
2024/03/09 06:21:14;;;;;;;35.78;14.02;;;;;;;-1.06;52.11;100762.53;5017399;28;20048;-70
2024/03/09 06:23:40;;;;;;;36.55;14.35;;;;;;;-1.28;52.64;100771.81;5015884;28;20162;-71
2024/03/09 06:26:05;;;;;;;26.00;13.18;;;;;;;-0.83;51.41;100765.31;5019000;28;20052;-71
2024/03/09 06:28:32;;;;;;;37.40;13.68;;;;;;;-0.92;51.89;100772.94;5026206;28;20032;-73
2024/03/09 06:30:58;;;;;;;32.53;12.40;;;;;;;-0.87;51.57;100771.25;5024455;28;20056;-72
2024/03/09 06:33:24;;;;;;;27.30;14.30;;;;;;;-1.01;52.02;100774.59;5032360;28;20058;-72
2024/03/09 06:35:53;;;;;;;34.03;15.35;;;;;;;-0.71;50.95;100767.91;5022866;28;20045;-72
2024/03/09 06:38:19;;;;;;;30.02;13.40;;;;;;;-0.97;52.14;100760.94;5022656;28;20358;-70
2024/03/09 06:40:45;;;;;;;30.52;13.20;;;;;;;-1.02;52.40;100764.31;5021917;28;20025;-74
2024/03/09 06:43:12;;;;;;;28.15;11.73;;;;;;;-0.91;51.90;100756.69;5027004;28;20033;-73
2024/03/09 06:45:40;;;;;;;30.08;13.13;;;;;;;-0.69;51.42;100766.22;5020208;28;21341;-71
2024/03/09 06:48:06;;;;;;;24.88;12.30;;;;;;;-0.71;51.49;100767.91;5030293;28;20025;-72
2024/03/09 06:50:34;;;;;;;26.90;12.43;;;;;;;-0.50;51.49;100771.44;5004975;28;20032;-76
2024/03/09 06:53:01;;;;;;;27.00;13.93;;;;;;;-0.02;50.09;100768.16;5033220;28;20749;-72
2024/03/09 06:55:29;;;;;;;33.83;14.30;;;;;;;0.88;47.64;100775.06;5016084;28;20024;-71
2024/03/09 06:58:02;;;;;;;25.95;12.65;;;;;;;1.45;46.33;100769.78;5025363;28;20041;-71
2024/03/09 07:00:29;;;;;;;23.13;11.45;;;;;;;2.27;44.46;100767.63;5010522;28;20147;-70
2024/03/09 07:02:58;;;;;;;30.52;12.32;;;;;;;2.47;43.56;100764.06;5012094;28;20033;-74
2024/03/09 07:05:30;;;;;;;32.35;12.48;;;;;;;2.37;43.80;100758.09;5016154;28;20162;-75
2024/03/09 07:07:59;;;;;;;23.63;12.75;;;;;;;2.68;43.23;100758.69;5003332;28;20040;-70
2024/03/09 07:10:27;;;;;;;27.33;13.00;;;;;;;3.11;42.43;100758.28;5022038;28;20033;-72
2024/03/09 07:12:53;;;;;;;29.45;12.23;;;;;;;3.54;41.19;100755.22;5025136;28;20072;-71
2024/03/09 07:15:22;;;;;;;24.65;12.00;;;;;;;3.05;41.34;100760.94;5022346;28;20221;-71
2024/03/09 07:17:49;;;;;;;23.48;10.80;;;;;;;3.84;41.38;100755.69;5025456;28;20241;-70
2024/03/09 07:20:16;;;;;;;28.02;11.93;;;;;;;3.46;41.04;100749.28;5034095;28;20025;-74
2024/03/09 07:22:48;;;;;;;26.67;12.05;;;;;;;3.12;41.39;100757.41;5003562;28;20108;-72
2024/03/09 07:25:14;;;;;;;25.98;12.57;;;;;;;3.33;41.33;100753.75;5031094;28;20639;-73
2024/03/09 07:27:41;;;;;;;24.60;11.68;;;;;;;4.33;39.74;100747.19;5022843;28;20055;-74
2024/03/09 07:30:11;;;;;;;26.10;12.38;;;;;;;3.58;40.88;100737.94;5008198;28;20736;-70
2024/03/09 07:32:39;;;;;;;25.40;13.75;;;;;;;3.99;40.24;100745.13;4998141;28;20041;-71
2024/03/09 07:35:15;;;;;;;22.95;12.35;;;;;;;4.13;40.30;100746.66;5019161;28;20044;-74
2024/03/09 07:37:45;;;;;;;28.15;11.88;;;;;;;4.47;39.52;100746.13;5016542;28;20082;-74
2024/03/09 07:40:16;;;;;;;31.85;12.85;;;;;;;4.10;39.46;100744.13;5001468;28;20064;-73
2024/03/09 07:42:42;;;;;;;19.63;10.57;;;;;;;3.77;40.45;100736.81;4995710;28;21248;-75
2024/03/09 07:45:15;;;;;;;34.50;13.45;;;;;;;4.40;39.59;100741.03;5000837;28;20025;-69
2024/03/09 07:47:45;;;;;;;29.00;11.63;;;;;;;4.36;39.36;100739.41;5009692;28;20041;-70
2024/03/09 07:50:14;;;;;;;25.35;11.32;;;;;;;4.91;38.82;100734.16;4994566;28;20729;-70
2024/03/09 07:52:50;;;;;;;24.60;13.27;;;;;;;4.50;39.56;100736.56;5009844;28;20640;-70
2024/03/09 07:55:20;;;;;;;25.90;12.85;;;;;;;5.25;38.63;100731.75;5022912;28;20039;-70
2024/03/09 07:57:48;;;;;;;27.88;13.10;;;;;;;5.34;37.87;100741.94;5018375;28;21251;-70
2024/03/09 08:00:19;;;;;;;22.17;11.60;;;;;;;5.87;36.53;100726.13;5022566;28;20228;-70
2024/03/09 08:02:48;;;;;;;26.10;11.98;;;;;;;6.19;36.26;100722.78;5018065;28;20777;-70
2024/03/09 08:05:21;;;;;;;24.90;12.55;;;;;;;5.89;36.27;100721.75;5022085;28;20541;-70
2024/03/09 08:07:47;;;;;;;23.75;12.27;;;;;;;5.74;37.08;100724.69;5019068;28;20040;-70
2024/03/09 08:10:14;;;;;;;20.52;12.02;;;;;;;5.81;36.81;100716.72;5017436;28;20059;-71
2024/03/09 08:12:40;;;;;;;26.02;12.90;;;;;;;5.14;37.81;100713.00;4998466;28;20036;-71
2024/03/09 08:15:06;;;;;;;28.50;12.35;;;;;;;5.61;37.39;100719.81;4992903;28;20039;-71
2024/03/09 08:17:32;;;;;;;34.08;13.50;;;;;;;6.21;36.20;100709.75;5004189;28;20052;-69
2024/03/09 08:20:05;;;;;;;24.02;11.82;;;;;;;5.48;37.10;100712.28;5014133;28;20062;-69
2024/03/09 08:22:34;;;;;;;28.77;13.45;;;;;;;5.59;37.48;100711.19;4998755;28;20313;-69
2024/03/09 08:25:07;;;;;;;28.48;12.25;;;;;;;6.77;35.45;100715.28;5020279;28;20240;-71
2024/03/09 08:27:34;;;;;;;21.67;12.30;;;;;;;7.49;34.51;100713.28;5017531;28;20759;-69
2024/03/09 08:30:03;;;;;;;26.77;12.52;;;;;;;7.12;35.31;100705.69;5008025;28;20226;-69
2024/03/09 08:32:29;;;;;;;23.30;12.30;;;;;;;5.62;37.11;100711.13;5011567;28;21549;-71
2024/03/09 08:34:55;;;;;;;28.17;12.75;;;;;;;6.26;36.36;100705.31;5027616;28;20523;-71
2024/03/09 08:37:20;;;;;;;27.38;12.40;;;;;;;5.89;37.14;100698.41;5014937;28;20074;-71
2024/03/09 08:39:46;;;;;;;26.73;14.00;;;;;;;5.64;37.71;100704.16;5026399;28;20744;-68
2024/03/09 08:42:12;;;;;;;24.60;12.10;;;;;;;4.95;38.79;100708.19;5023439;28;20102;-69
2024/03/09 08:44:39;;;;;;;26.00;14.35;;;;;;;5.32;38.36;100709.16;5022285;28;20290;-70
2024/03/09 08:47:05;;;;;;;24.45;12.60;;;;;;;5.91;37.56;100706.19;4998711;28;20052;-70
2024/03/09 08:49:31;;;;;;;30.25;12.18;;;;;;;6.20;37.54;100695.09;5009018;28;20219;-71
2024/03/09 08:51:57;;;;;;;29.45;13.13;;;;;;;6.03;37.10;100696.34;5010079;28;20041;-70
2024/03/09 08:54:23;;;;;;;22.77;12.82;;;;;;;6.94;35.99;100695.81;5026048;28;20030;-70
2024/03/09 08:56:55;;;;;;;22.85;12.00;;;;;;;6.37;36.75;100690.34;4989663;28;20333;-70
2024/03/09 08:59:21;;;;;;;25.98;12.85;;;;;;;6.50;36.74;100681.34;5012861;28;20060;-71
2024/03/09 09:01:48;;;;;;;23.95;12.57;;;;;;;5.59;38.07;100685.28;5017396;28;20090;-70
2024/03/09 09:04:14;;;;;;;27.98;14.18;;;;;;;4.91;39.15;100682.38;5020585;28;20042;-70
2024/03/09 09:06:39;;;;;;;27.92;13.02;;;;;;;4.06;41.38;100680.38;5000678;28;20133;-69
2024/03/09 09:09:09;;;;;;;26.02;13.50;;;;;;;4.66;41.10;100675.03;5012890;28;20151;-69
2024/03/09 09:11:35;;;;;;;30.05;12.02;;;;;;;5.50;39.93;100672.47;5020530;28;20841;-70
2024/03/09 09:14:03;;;;;;;26.23;12.82;;;;;;;5.05;39.37;100677.75;5026431;28;20044;-70
2024/03/09 09:16:29;;;;;;;23.92;13.13;;;;;;;5.23;39.57;100676.53;5025798;28;20225;-70
2024/03/09 09:18:57;;;;;;;23.33;11.45;;;;;;;4.68;40.40;100673.28;5028827;28;20124;-70
2024/03/09 09:21:22;;;;;;;25.40;12.00;;;;;;;5.13;39.17;100662.91;5024936;28;20049;-70
2024/03/09 09:23:48;;;;;;;27.10;12.43;;;;;;;4.59;40.71;100661.34;5028458;28;20044;-70
2024/03/09 09:26:14;;;;;;;24.52;11.63;;;;;;;4.89;40.02;100666.00;5024173;27;20048;-70
2024/03/09 09:28:40;;;;;;;23.63;12.60;;;;;;;4.54;41.01;100675.25;5022391;28;20120;-69
2024/03/09 09:31:06;;;;;;;27.35;12.68;;;;;;;4.79;40.22;100676.50;5024636;28;20043;-69
2024/03/09 09:33:31;;;;;;;23.15;13.63;;;;;;;4.81;40.25;100677.34;5039009;28;20028;-71
2024/03/09 09:35:58;;;;;;;25.67;12.57;;;;;;;5.17;40.14;100671.50;5024102;28;20036;-71
2024/03/09 09:38:26;;;;;;;28.95;13.32;;;;;;;5.88;38.66;100665.56;5023365;28;20490;-68
2024/03/09 09:40:57;;;;;;;26.65;13.38;;;;;;;6.13;38.40;100667.56;5029019;28;20155;-68
2024/03/09 09:43:27;;;;;;;20.92;9.07;;;;;;;5.42;39.39;100662.28;5022201;28;20037;-70
2024/03/09 09:45:59;;;;;;;28.27;12.60;;;;;;;5.37;39.55;100663.28;5022278;28;20044;-71
2024/03/09 09:48:28;;;;;;;28.38;12.45;;;;;;;5.09;40.25;100663.00;5021937;28;20024;-69
2024/03/09 09:50:55;;;;;;;26.90;12.45;;;;;;;5.66;39.31;100658.31;5025196;28;20125;-68
2024/03/09 09:53:21;;;;;;;26.15;13.32;;;;;;;5.94;38.70;100664.59;5028982;28;20044;-70
2024/03/09 09:55:48;;;;;;;25.63;12.30;;;;;;;5.32;39.20;100655.59;5023444;28;20041;-70
2024/03/09 09:58:14;;;;;;;27.85;12.63;;;;;;;5.07;39.93;100650.09;5019167;28;20399;-70
2024/03/09 10:00:40;;;;;;;25.73;12.43;;;;;;;5.59;39.85;100648.97;5020282;28;20040;-70
2024/03/09 10:03:06;;;;;;;28.27;12.73;;;;;;;6.21;38.30;100642.28;5025030;28;20096;-70
2024/03/09 10:05:33;;;;;;;23.60;11.82;;;;;;;6.06;38.37;100649.59;5008258;28;21331;-71
2024/03/09 10:08:08;;;;;;;28.02;12.98;;;;;;;6.43;37.83;100630.47;5003722;28;20040;-71
2024/03/09 10:10:37;;;;;;;24.95;12.43;;;;;;;6.37;38.19;100638.44;5023744;28;20039;-70
2024/03/09 10:13:11;;;;;;;24.38;13.25;;;;;;;6.14;38.58;100640.75;5016641;28;20028;-69
2024/03/09 10:15:40;;;;;;;22.77;11.98;;;;;;;5.64;39.27;100638.50;4989586;28;20021;-69
2024/03/09 10:18:07;;;;;;;23.95;11.77;;;;;;;6.21;38.21;100626.72;5021812;28;20414;-69
2024/03/09 10:20:34;;;;;;;21.80;11.00;;;;;;;5.80;38.71;100632.03;5019089;28;20058;-69
2024/03/09 10:23:12;;;;;;;28.48;12.57;;;;;;;6.39;39.22;100631.44;5008758;28;20052;-69
2024/03/09 10:25:41;;;;;;;22.35;12.35;;;;;;;6.95;37.29;100619.53;5018592;28;20036;-69
2024/03/09 10:28:10;;;;;;;23.63;12.20;;;;;;;6.50;37.48;100624.22;5010897;28;21788;-69
2024/03/09 10:30:40;;;;;;;21.52;11.93;;;;;;;6.23;38.26;100622.34;5010161;28;20577;-69
2024/03/09 10:33:16;;;;;;;20.02;10.75;;;;;;;6.17;38.61;100620.78;5021920;28;20020;-69
2024/03/09 10:35:46;;;;;;;25.17;12.85;;;;;;;6.75;37.45;100609.72;5005072;28;20156;-71
2024/03/09 10:38:12;;;;;;;25.48;12.80;;;;;;;6.49;38.27;100596.56;5010050;28;20067;-69
2024/03/09 10:40:38;;;;;;;19.60;10.50;;;;;;;6.38;37.61;100603.81;5004324;28;20051;-69
2024/03/09 10:43:11;;;;;;;21.52;11.30;;;;;;;5.65;39.06;100612.50;5005742;28;20056;-69
2024/03/09 10:45:38;;;;;;;22.65;12.20;;;;;;;5.52;39.26;100605.91;5012719;28;20566;-69
2024/03/09 10:48:09;;;;;;;23.73;11.98;;;;;;;6.34;38.03;100597.00;5029806;28;20044;-70
2024/03/09 10:50:43;;;;;;;25.27;12.65;;;;;;;6.73;37.66;100594.19;5018692;28;20029;-69
2024/03/09 10:53:09;;;;;;;23.48;12.80;;;;;;;7.69;36.56;100587.84;5033612;28;20059;-69
2024/03/09 10:55:53;;;;;;;21.15;12.23;;;;;;;7.39;35.98;100584.41;5020947;28;20474;-69
2024/03/09 10:58:24;;;;;;;19.02;10.80;;;;;;;6.32;37.92;100572.81;5027359;28;20072;-69
2024/03/09 11:00:51;;;;;;;26.02;12.90;;;;;;;6.78;37.19;100587.13;5012915;28;20033;-69
2024/03/09 11:03:21;;;;;;;22.42;11.57;;;;;;;7.04;37.32;100601.09;5008483;28;20048;-69
2024/03/09 11:05:48;;;;;;;27.80;15.55;;;;;;;6.88;37.35;100582.50;5017473;28;20469;-68
2024/03/09 11:08:16;;;;;;;29.92;14.85;;;;;;;7.78;36.35;100580.63;5007879;28;20411;-69
2024/03/09 11:10:46;;;;;;;22.05;11.18;;;;;;;8.02;35.45;100585.00;5002825;28;20039;-69
2024/03/09 11:13:20;;;;;;;21.65;11.40;;;;;;;7.20;36.59;100573.75;5011428;28;20040;-69
2024/03/09 11:15:54;;;;;;;21.38;10.98;;;;;;;8.03;36.18;100576.31;5015208;28;20639;-69